createdAt,value
2018-05-23T00:00:55.189Z,8.90
2018-05-23T00:03:23.497Z,9.77
2018-05-23T00:05:51.812Z,10.00
2018-05-23T00:08:20.999Z,9.90
2018-05-23T00:10:49.321Z,10.10
2018-05-23T00:13:19.197Z,10.60
2018-05-23T00:15:47.547Z,10.93
2018-05-23T00:18:16.733Z,11.20
2018-05-23T00:20:46.824Z,11.10
2018-05-23T00:23:15.151Z,12.83
2018-05-23T00:25:44.247Z,12.33
2018-05-23T00:28:12.561Z,11.53
2018-05-23T00:30:40.907Z,13.50
2018-05-23T00:33:10.102Z,12.80
2018-05-23T00:35:38.492Z,12.30
2018-05-23T00:38:06.940Z,11.30
2018-05-23T00:40:35.285Z,11.50
2018-05-23T00:43:03.612Z,10.80
2018-05-23T00:45:31.937Z,10.67
2018-05-23T00:48:00.234Z,11.33
2018-05-23T00:50:28.564Z,11.07
2018-05-23T00:52:56.904Z,11.00
2018-05-23T00:55:34.424Z,11.00
2018-05-23T00:58:02.738Z,11.33
2018-05-23T01:00:31.059Z,11.50
2018-05-23T01:02:59.376Z,11.53
2018-05-23T01:05:27.689Z,11.27
2018-05-23T01:07:57.868Z,11.47
2018-05-23T01:10:26.186Z,11.67
2018-05-23T01:12:54.514Z,11.33
2018-05-23T01:15:22.838Z,13.13
2018-05-23T01:17:51.161Z,12.67
2018-05-23T01:20:19.479Z,12.10
2018-05-23T01:22:47.794Z,11.73
2018-05-23T01:25:16.124Z,12.90
2018-05-23T01:27:44.444Z,12.07
2018-05-23T01:30:14.287Z,12.80
2018-05-23T01:32:42.617Z,12.83
2018-05-23T01:35:10.947Z,14.33
2018-05-23T01:37:39.243Z,15.03
2018-05-23T01:40:08.351Z,14.27
2018-05-23T01:42:36.665Z,14.93
2018-05-23T01:45:05.010Z,15.37
2018-05-23T01:47:34.117Z,14.03
2018-05-23T01:50:02.447Z,14.90
2018-05-23T01:52:30.870Z,14.73
2018-05-23T01:54:59.359Z,15.20
2018-05-23T01:57:28.457Z,15.90
2018-05-23T01:59:56.775Z,15.33
2018-05-23T02:02:25.107Z,16.10
2018-05-23T02:04:53.422Z,15.93
2018-05-23T02:07:21.821Z,16.07
2018-05-23T02:09:50.140Z,16.17
2018-05-23T02:12:18.478Z,16.40
2018-05-23T02:14:46.809Z,16.83
2018-05-23T02:17:15.139Z,16.83
2018-05-23T02:19:43.460Z,16.93
2018-05-23T02:22:11.800Z,19.07
2018-05-23T02:24:40.113Z,20.33
2018-05-23T02:27:08.411Z,19.30
2018-05-23T02:29:37.271Z,18.87
2018-05-23T02:32:05.571Z,17.57
2018-05-23T02:34:33.887Z,17.83
2018-05-23T02:37:02.212Z,18.23
2018-05-23T02:39:30.562Z,17.50
2018-05-23T02:41:59.645Z,16.90
2018-05-23T02:44:27.985Z,19.17
2018-05-23T02:46:56.396Z,18.50
2018-05-23T02:49:24.843Z,18.43
2018-05-23T02:51:53.155Z,18.47
2018-05-23T02:54:21.480Z,19.70
2018-05-23T02:56:51.323Z,19.23
2018-05-23T02:59:19.712Z,19.43
2018-05-23T03:01:48.020Z,19.70
2018-05-23T03:04:16.346Z,21.17
2018-05-23T03:06:44.701Z,21.30
2018-05-23T03:09:13.059Z,22.07
2018-05-23T03:11:41.371Z,23.40
2018-05-23T03:14:10.470Z,21.60
2018-05-23T03:16:38.799Z,23.03
2018-05-23T03:19:07.127Z,21.97
2018-05-23T03:21:35.447Z,21.60
2018-05-23T03:24:03.744Z,23.60
2018-05-23T03:26:32.067Z,23.87
2018-05-23T03:29:00.399Z,23.10
2018-05-23T03:31:28.724Z,22.43
2018-05-23T03:33:57.065Z,21.90
2018-05-23T03:36:25.371Z,23.27
2018-05-23T03:38:53.690Z,21.53
2018-05-23T03:41:21.992Z,21.00
2018-05-23T03:43:50.346Z,22.23
2018-05-23T03:46:19.080Z,23.73
2018-05-23T03:48:48.174Z,26.60
2018-05-23T03:51:16.487Z,28.90
2018-05-23T03:53:44.795Z,30.30
2018-05-23T03:56:13.111Z,29.80
2018-05-23T03:58:42.200Z,29.87
2018-05-23T04:01:21.846Z,31.33
2018-05-23T04:04:01.326Z,29.70
2018-05-23T04:06:44.419Z,28.33
2018-05-23T04:09:12.730Z,26.90
2018-05-23T04:11:41.052Z,26.27
2018-05-23T04:14:10.902Z,26.13
2018-05-23T04:16:39.230Z,26.00
2018-05-23T04:19:07.551Z,22.90
2018-05-23T04:21:36.661Z,20.27
2018-05-23T04:24:04.715Z,20.43
2018-05-23T04:26:33.142Z,19.53
2018-05-23T04:29:01.471Z,16.73
2018-05-23T04:31:29.535Z,16.70
2018-05-23T04:33:57.835Z,16.40
2018-05-23T04:36:26.142Z,16.30
2018-05-23T04:38:55.324Z,15.13
2018-05-23T04:41:23.643Z,15.27
2018-05-23T04:43:51.972Z,15.93
2018-05-23T04:46:20.315Z,14.90
2018-05-23T04:48:48.685Z,15.70
2018-05-23T04:51:17.159Z,16.00
2018-05-23T04:53:46.277Z,15.20
2018-05-23T04:56:14.599Z,15.00
2018-05-23T04:58:42.910Z,14.70
2018-05-23T05:01:11.253Z,14.67
2018-05-23T05:03:39.577Z,13.30
2018-05-23T05:06:07.894Z,12.60
2018-05-23T05:08:36.195Z,12.03
2018-05-23T05:11:04.434Z,12.27
2018-05-23T05:13:32.746Z,12.73
2018-05-23T05:16:01.074Z,13.37
2018-05-23T05:18:29.380Z,14.00
2018-05-23T05:20:58.484Z,15.33
2018-05-23T05:23:27.140Z,14.37
2018-05-23T05:25:55.452Z,14.33
2018-05-23T05:28:24.559Z,14.97
2018-05-23T05:30:52.883Z,17.03
2018-05-23T05:33:21.337Z,23.30
2018-05-23T05:35:49.643Z,28.07
2018-05-23T05:38:17.953Z,36.13
2018-05-23T05:40:46.308Z,33.30
2018-05-23T05:43:14.628Z,28.13
2018-05-23T05:45:43.729Z,23.03
2018-05-23T05:48:12.045Z,21.87
2018-05-23T05:50:40.387Z,21.77
2018-05-23T05:53:08.700Z,21.87
2018-05-23T05:55:37.788Z,21.37
2018-05-23T05:58:06.128Z,21.03
2018-05-23T06:03:01.315Z,21.83
2018-05-23T06:05:29.675Z,22.83
2018-05-23T06:07:57.996Z,23.10
2018-05-23T06:10:26.319Z,22.87
2018-05-23T06:12:54.634Z,20.03
2018-05-23T06:15:23.715Z,20.90
2018-05-23T06:17:52.022Z,21.47
2018-05-23T06:20:20.363Z,21.80
2018-05-23T06:22:48.833Z,25.47
2018-05-23T06:25:17.179Z,28.40
2018-05-23T06:27:45.599Z,29.67
2018-05-23T06:30:13.922Z,30.43
2018-05-23T06:32:42.225Z,31.80
2018-05-23T06:35:10.555Z,30.37
2018-05-23T06:37:38.889Z,29.67
2018-05-23T06:40:07.289Z,26.70
2018-05-23T06:42:35.607Z,27.53
2018-05-23T06:45:03.699Z,25.03
2018-05-23T06:47:32.019Z,25.40
2018-05-23T06:50:00.358Z,20.57
2018-05-23T06:52:28.879Z,18.83
2018-05-23T06:54:57.196Z,17.10
2018-05-23T06:57:25.512Z,16.03
2018-05-23T06:59:53.859Z,15.43
2018-05-23T07:02:22.185Z,15.17
2018-05-23T07:04:51.381Z,14.93
2018-05-23T07:07:19.717Z,15.73
2018-05-23T07:09:48.017Z,15.67
2018-05-23T07:12:16.339Z,14.63
2018-05-23T07:14:45.480Z,14.70
2018-05-23T07:17:13.813Z,15.20
2018-05-23T07:19:42.135Z,15.40
2018-05-23T07:22:10.453Z,15.77
2018-05-23T07:24:38.773Z,14.13
2018-05-23T07:27:07.890Z,14.20
2018-05-23T07:29:36.220Z,14.53
2018-05-23T07:32:04.218Z,14.17
2018-05-23T07:34:32.576Z,15.37
2018-05-23T07:37:00.900Z,14.27
2018-05-23T07:39:29.244Z,13.30
2018-05-23T07:41:58.345Z,12.13
2018-05-23T07:44:26.714Z,12.57
2018-05-23T07:46:55.035Z,13.23
2018-05-23T07:49:23.365Z,14.60
2018-05-23T07:51:51.675Z,12.70
2018-05-23T07:54:20.260Z,13.63
2018-05-23T07:56:48.575Z,11.97
2018-05-23T07:59:17.663Z,11.17
2018-05-23T08:01:46.011Z,12.43
2018-05-23T08:04:14.355Z,11.77
2018-05-23T08:06:43.431Z,11.60
2018-05-23T08:09:12.604Z,10.20
2018-05-23T08:11:40.945Z,10.67
2018-05-23T08:14:09.264Z,12.40
2018-05-23T08:16:37.567Z,11.77
2018-05-23T08:19:05.925Z,10.53
2018-05-23T08:21:34.245Z,9.43
2018-05-23T08:24:02.585Z,10.70
2018-05-23T08:26:30.655Z,8.90
2018-05-23T08:28:58.997Z,9.20
2018-05-23T08:31:28.080Z,9.67
2018-05-23T08:33:56.412Z,9.27
2018-05-23T08:36:25.597Z,10.27
2018-05-23T08:38:54.061Z,10.50
2018-05-23T08:41:22.366Z,9.90
2018-05-23T08:43:50.713Z,9.83
2018-05-23T08:46:19.051Z,11.00
2018-05-23T08:48:47.390Z,12.37
2018-05-23T08:51:15.696Z,12.97
2018-05-23T08:53:44.030Z,13.07
2018-05-23T08:56:12.346Z,13.27
2018-05-23T08:58:41.257Z,11.90
2018-05-23T09:01:10.161Z,11.50
2018-05-23T09:03:39.049Z,10.77
2018-05-23T09:06:07.973Z,11.23
2018-05-23T09:08:37.643Z,12.15
2018-05-23T09:11:07.328Z,12.95
2018-05-23T09:13:36.208Z,12.85
2018-05-23T09:16:05.121Z,11.38
2018-05-23T09:18:34.010Z,11.63
2018-05-23T09:21:02.880Z,10.50
2018-05-23T09:23:31.807Z,10.90
2018-05-23T09:26:00.150Z,10.00
2018-05-23T09:28:28.443Z,9.80
2018-05-23T09:30:57.322Z,8.90
2018-05-23T09:33:26.197Z,9.05
2018-05-23T09:35:55.063Z,8.57
2018-05-23T09:38:23.942Z,8.48
2018-05-23T09:40:52.816Z,8.75
2018-05-23T09:43:21.777Z,8.65
2018-05-23T09:45:50.679Z,8.90
2018-05-23T09:48:19.605Z,9.70
2018-05-23T09:50:48.473Z,9.63
2018-05-23T09:53:17.370Z,9.48
2018-05-23T09:55:46.266Z,9.52
2018-05-23T09:58:15.150Z,9.13
2018-05-23T10:00:44.033Z,8.70
2018-05-23T10:03:12.922Z,8.73
2018-05-23T10:05:41.808Z,8.40
2018-05-23T10:08:10.692Z,8.65
2018-05-23T10:10:39.620Z,8.10
2018-05-23T10:13:08.495Z,8.20
2018-05-23T10:15:37.592Z,8.57
2018-05-23T10:18:06.463Z,8.50
2018-05-23T10:20:35.368Z,8.15
2018-05-23T10:23:04.239Z,7.22
2018-05-23T10:25:33.137Z,7.90
2018-05-23T10:28:02.023Z,7.90
2018-05-23T10:30:30.906Z,8.32
2018-05-23T10:32:59.552Z,8.13
2018-05-23T10:35:28.104Z,8.05
2018-05-23T10:37:57.088Z,8.07
2018-05-23T10:40:26.774Z,7.50
2018-05-23T10:42:55.668Z,7.57
2018-05-23T10:45:24.567Z,8.35
2018-05-23T10:47:53.457Z,8.73
2018-05-23T10:50:22.315Z,8.55
2018-05-23T10:52:51.231Z,8.27
2018-05-23T10:55:20.111Z,8.68
2018-05-23T10:57:49.006Z,8.13
2018-05-23T11:00:17.908Z,7.15
2018-05-23T11:02:46.802Z,7.22
2018-05-23T11:05:15.896Z,6.95
2018-05-23T11:07:46.268Z,6.68
2018-05-23T11:10:15.160Z,7.32
2018-05-23T11:12:44.062Z,6.70
2018-05-23T11:15:13.054Z,6.95
2018-05-23T11:17:42.050Z,6.35
2018-05-23T11:20:11.653Z,7.07
2018-05-23T11:22:40.522Z,6.62
2018-05-23T11:25:09.403Z,7.10
2018-05-23T11:27:38.288Z,6.82
2018-05-23T11:30:07.180Z,6.97
2018-05-23T11:32:36.280Z,7.28
2018-05-23T11:35:04.846Z,6.97
2018-05-23T11:37:33.722Z,6.93
2018-05-23T11:40:02.593Z,7.47
2018-05-23T11:42:31.484Z,7.57
2018-05-23T11:45:00.410Z,7.85
2018-05-23T11:47:29.303Z,8.20
2018-05-23T11:49:58.175Z,8.25
2018-05-23T11:52:27.083Z,8.68
2018-05-23T11:54:55.987Z,8.23
2018-05-23T11:57:24.904Z,8.20
2018-05-23T11:59:53.952Z,8.63
2018-05-23T12:02:22.852Z,9.00
2018-05-23T12:04:51.719Z,9.18
2018-05-23T12:07:20.615Z,8.57
2018-05-23T12:09:49.471Z,8.82
2018-05-23T12:12:18.423Z,9.48
2018-05-23T12:14:47.303Z,9.68
2018-05-23T12:17:16.184Z,9.43
2018-05-23T12:19:44.796Z,9.47
2018-05-23T12:22:13.850Z,9.52
2018-05-23T12:24:42.783Z,9.07
2018-05-23T12:27:11.654Z,9.48
2018-05-23T12:29:40.531Z,9.75
2018-05-23T12:32:09.424Z,9.55
2018-05-23T12:34:38.339Z,9.80
2018-05-23T12:37:07.217Z,10.13
2018-05-23T12:39:36.129Z,10.90
2018-05-23T12:42:05.509Z,9.60
2018-05-23T12:44:34.078Z,10.13
2018-05-23T12:47:02.997Z,10.20
2018-05-23T12:49:31.890Z,10.38
2018-05-23T12:52:00.793Z,10.70
2018-05-23T12:54:29.711Z,11.30
2018-05-23T12:56:59.397Z,10.85
2018-05-23T12:59:28.297Z,10.90
2018-05-23T13:01:57.186Z,10.50
2018-05-23T13:04:26.105Z,10.88
2018-05-23T13:06:55.053Z,11.93
2018-05-23T13:09:23.960Z,11.63
2018-05-23T13:11:53.191Z,12.32
2018-05-23T13:14:22.833Z,10.38
2018-05-23T13:16:51.748Z,12.20
2018-05-23T13:19:20.662Z,10.80
2018-05-23T13:21:49.574Z,11.85
2018-05-23T13:24:18.485Z,11.48
2018-05-23T13:26:47.100Z,11.35
2018-05-23T13:29:15.985Z,11.75
2018-05-23T13:31:44.903Z,12.13
2018-05-23T13:34:13.848Z,11.48
2018-05-23T13:36:42.799Z,10.75
2018-05-23T13:39:11.703Z,11.00
2018-05-23T13:41:40.620Z,11.00
2018-05-23T13:44:09.512Z,9.82
2018-05-23T13:46:38.474Z,11.23
2018-05-23T13:49:07.380Z,10.90
2018-05-23T13:51:36.307Z,10.82
2018-05-23T13:54:04.887Z,11.18
2018-05-23T13:56:33.794Z,10.90
2018-05-23T13:59:02.704Z,11.07
2018-05-23T14:01:31.037Z,11.00
2018-05-23T14:03:59.940Z,11.52
2018-05-23T14:06:28.848Z,11.15
2018-05-23T14:08:57.788Z,11.63
2018-05-23T14:11:26.707Z,11.10
2018-05-23T14:13:55.639Z,10.68
2018-05-23T14:16:24.555Z,11.50
2018-05-23T14:18:53.486Z,10.68
2018-05-23T14:21:22.420Z,10.30
2018-05-23T14:23:51.325Z,9.90
2018-05-23T14:26:20.207Z,10.18
2018-05-23T14:28:49.121Z,9.05
2018-05-23T14:31:18.004Z,9.20
2018-05-23T14:33:46.921Z,8.80
2018-05-23T14:36:15.795Z,8.80
2018-05-23T14:38:44.692Z,8.68
2018-05-23T14:41:13.278Z,8.15
2018-05-23T14:43:42.242Z,8.10
2018-05-23T14:46:11.286Z,8.02
2018-05-23T14:48:39.875Z,8.30
2018-05-23T14:51:08.457Z,7.27
2018-05-23T14:53:36.503Z,7.50
2018-05-23T14:56:05.105Z,7.23
2018-05-23T14:58:33.726Z,6.70
2018-05-23T15:01:02.349Z,6.47
2018-05-23T15:03:30.942Z,6.70
2018-05-23T15:05:59.544Z,6.50
2018-05-23T15:08:28.234Z,5.67
2018-05-23T15:10:56.971Z,5.30
2018-05-23T15:13:25.587Z,4.80
2018-05-23T15:15:54.217Z,4.40
2018-05-23T15:18:22.799Z,4.10
2018-05-23T15:20:51.710Z,4.25
2018-05-23T15:23:19.727Z,4.17
2018-05-23T15:25:49.132Z,4.07
2018-05-23T15:28:17.732Z,3.57
2018-05-23T15:30:46.353Z,3.70
2018-05-23T15:33:14.933Z,3.97
2018-05-23T15:35:43.551Z,4.13
2018-05-23T15:38:12.164Z,4.70
2018-05-23T15:40:41.308Z,4.57
2018-05-23T15:43:09.909Z,4.60
2018-05-23T15:45:38.510Z,5.43
2018-05-23T15:48:07.127Z,5.23
2018-05-23T15:50:35.706Z,5.53
2018-05-23T15:53:04.313Z,4.87
2018-05-23T15:55:33.681Z,5.03
2018-05-23T15:58:02.469Z,5.63
2018-05-23T16:00:31.061Z,4.80
2018-05-23T16:02:59.699Z,5.60
2018-05-23T16:05:28.808Z,5.10
2018-05-23T16:07:57.422Z,5.90
2018-05-23T16:10:26.024Z,5.80
2018-05-23T16:12:54.622Z,5.87
2018-05-23T16:15:23.227Z,6.20
2018-05-23T16:17:52.623Z,5.47
2018-05-23T16:20:21.775Z,5.67
2018-05-23T16:22:50.377Z,5.00
2018-05-23T16:25:18.744Z,4.73
2018-05-23T16:27:47.416Z,4.60
2018-05-23T16:30:16.013Z,4.77
2018-05-23T16:32:44.689Z,4.53
2018-05-23T16:35:13.304Z,4.33
2018-05-23T16:37:41.906Z,4.53
2018-05-23T16:40:10.969Z,4.32
2018-05-23T16:42:39.867Z,4.35
2018-05-23T16:45:08.792Z,4.18
2018-05-23T16:47:37.696Z,3.90
2018-05-23T16:50:06.590Z,4.10
2018-05-23T16:52:35.463Z,4.43
2018-05-23T16:55:04.943Z,4.65
2018-05-23T16:57:34.173Z,4.35
2018-05-23T17:00:02.934Z,4.25
2018-05-23T17:02:31.852Z,4.15
2018-05-23T17:05:01.564Z,4.25
2018-05-23T17:07:30.593Z,4.25
2018-05-23T17:09:59.485Z,4.30
2018-05-23T17:12:28.431Z,3.97
2018-05-23T17:14:57.443Z,3.80
2018-05-23T17:17:26.381Z,3.80
2018-05-23T17:19:55.270Z,4.12
2018-05-23T17:22:24.157Z,3.60
2018-05-23T17:24:53.848Z,3.75
2018-05-23T17:27:22.815Z,3.50
2018-05-23T17:29:51.856Z,4.03
2018-05-23T17:32:21.504Z,3.90
2018-05-23T17:34:50.397Z,3.85
2018-05-23T17:37:19.300Z,3.53
2018-05-23T17:39:48.199Z,3.70
2018-05-23T17:42:17.111Z,3.20
2018-05-23T17:44:45.988Z,3.10
2018-05-23T17:47:14.879Z,3.70
2018-05-23T17:49:43.756Z,3.87
2018-05-23T17:52:12.778Z,3.65
2018-05-23T17:54:41.670Z,3.85
2018-05-23T17:57:10.546Z,3.42
2018-05-23T17:59:39.456Z,3.75
2018-05-23T18:02:08.402Z,3.55
2018-05-23T18:04:37.442Z,3.37
2018-05-23T18:07:06.085Z,3.50
2018-05-23T18:09:37.244Z,3.20
2018-05-23T18:12:06.830Z,3.30
2018-05-23T18:14:35.968Z,3.50
2018-05-23T18:17:05.898Z,3.53
2018-05-23T18:19:34.880Z,3.60
2018-05-23T18:22:03.535Z,3.40
2018-05-23T18:24:33.213Z,3.87
2018-05-23T18:27:02.156Z,3.83
2018-05-23T18:29:31.159Z,3.70
2018-05-23T18:32:00.188Z,3.75
2018-05-23T18:34:29.106Z,3.67
2018-05-23T18:36:58.121Z,3.67
2018-05-23T18:39:27.209Z,3.10
2018-05-23T18:41:56.131Z,3.60
2018-05-23T18:44:25.039Z,3.60
2018-05-23T18:46:53.065Z,3.17
2018-05-23T18:49:21.439Z,3.17
2018-05-23T18:51:50.576Z,3.20
2018-05-23T18:54:19.532Z,3.67
2018-05-23T18:56:49.704Z,2.92
2018-05-23T18:59:18.660Z,2.80
2018-05-23T19:01:50.775Z,3.05
2018-05-23T19:04:19.688Z,2.58
2018-05-23T19:06:51.725Z,2.87
2018-05-23T19:09:20.617Z,2.60
2018-05-23T19:11:49.572Z,2.80
2018-05-23T19:14:18.488Z,2.65
2018-05-23T19:16:47.354Z,2.53
2018-05-23T19:19:15.921Z,2.97
2018-05-23T19:21:44.865Z,3.20
2018-05-23T19:24:13.788Z,2.72
2018-05-23T19:26:42.772Z,2.45
2018-05-23T19:29:15.031Z,2.50
2018-05-23T19:31:44.163Z,2.67
2018-05-23T19:34:13.367Z,2.80
2018-05-23T19:36:42.157Z,2.63
2018-05-23T19:39:12.825Z,2.58
2018-05-23T19:41:42.191Z,2.47
2018-05-23T19:44:11.118Z,2.78
2018-05-23T19:46:40.026Z,2.85
2018-05-23T19:49:18.750Z,2.60
2018-05-23T19:51:48.642Z,2.90
2018-05-23T19:54:17.612Z,2.70
2018-05-23T19:56:46.542Z,2.62
2018-05-23T19:59:16.231Z,2.72
2018-05-23T20:01:45.133Z,2.85
2018-05-23T20:04:13.518Z,3.20
2018-05-23T20:06:42.425Z,3.70
2018-05-23T20:09:11.365Z,3.40
2018-05-23T20:11:40.252Z,3.75
2018-05-23T20:14:08.639Z,3.47
2018-05-23T20:16:38.447Z,3.87
2018-05-23T20:19:16.816Z,3.83
2018-05-23T20:21:45.137Z,3.50
2018-05-23T20:24:14.237Z,4.00
2018-05-23T20:26:42.592Z,3.63
2018-05-23T20:29:11.264Z,3.70
2018-05-23T20:31:39.740Z,4.00
2018-05-23T20:34:07.750Z,4.03
2018-05-23T20:36:36.169Z,3.83
2018-05-23T20:39:03.703Z,3.67
2018-05-23T20:41:32.789Z,3.70
2018-05-23T20:44:01.201Z,4.30
2018-05-23T20:46:33.433Z,3.80
2018-05-23T20:49:01.869Z,3.70
2018-05-23T20:51:30.300Z,3.40
2018-05-23T20:53:58.713Z,3.23
2018-05-23T20:56:27.100Z,2.93
2018-05-23T20:58:55.707Z,3.37
2018-05-23T21:01:24.356Z,2.93
2018-05-23T21:03:52.735Z,3.30
2018-05-23T21:06:21.057Z,2.70
2018-05-23T21:08:52.631Z,3.13
2018-05-23T21:11:20.383Z,2.43
2018-05-23T21:13:49.029Z,3.00
2018-05-23T21:16:17.397Z,2.93
2018-05-23T21:18:45.746Z,2.57
2018-05-23T21:21:14.864Z,2.23
2018-05-23T21:23:43.179Z,2.60
2018-05-23T21:26:11.531Z,2.50
2018-05-23T21:28:40.619Z,2.60
2018-05-23T21:31:09.752Z,2.40
2018-05-23T21:33:38.103Z,2.53
2018-05-23T21:36:06.443Z,2.30
2018-05-23T21:38:34.756Z,2.50
2018-05-23T21:41:03.079Z,2.23
2018-05-23T21:43:31.477Z,2.17
2018-05-23T21:45:59.801Z,2.20
2018-05-23T21:48:28.134Z,2.40
2018-05-23T21:50:56.470Z,2.50
2018-05-23T21:53:24.796Z,2.53
2018-05-23T21:55:53.114Z,2.47
2018-05-23T21:58:21.435Z,2.43
2018-05-23T22:00:49.548Z,2.47
2018-05-23T22:03:17.868Z,2.77
2018-05-23T22:05:47.875Z,2.27
2018-05-23T22:08:16.192Z,2.47
2018-05-23T22:10:44.504Z,2.47
2018-05-23T22:13:12.813Z,2.77
2018-05-23T22:15:41.133Z,2.57
2018-05-23T22:18:09.460Z,2.40
2018-05-23T22:20:37.801Z,3.00
2018-05-23T22:23:05.868Z,2.80
2018-05-23T22:25:34.165Z,3.07
2018-05-23T22:28:02.488Z,2.73
2018-05-23T22:30:30.854Z,3.17
2018-05-23T22:32:59.352Z,3.43
2018-05-23T22:35:27.680Z,2.83
2018-05-23T22:37:55.987Z,3.30
2018-05-23T22:40:25.137Z,3.30
2018-05-23T22:42:54.836Z,3.30
2018-05-23T22:45:23.178Z,3.07
2018-05-23T22:47:51.496Z,3.20
2018-05-23T22:50:19.848Z,3.10
2018-05-23T22:52:48.967Z,3.47
2018-05-23T22:55:17.292Z,3.33
2018-05-23T22:57:45.606Z,3.50
2018-05-23T23:00:16.704Z,3.30
2018-05-23T23:02:44.804Z,3.40
2018-05-23T23:05:13.115Z,3.27
2018-05-23T23:07:41.442Z,3.57
2018-05-23T23:10:09.747Z,3.73
2018-05-23T23:12:38.075Z,3.60
2018-05-23T23:15:06.395Z,3.70
2018-05-23T23:17:34.724Z,3.70
2018-05-23T23:20:03.850Z,3.63
2018-05-23T23:22:38.292Z,4.03
2018-05-23T23:25:06.259Z,3.03
2018-05-23T23:27:34.572Z,3.90
2018-05-23T23:30:02.638Z,3.67
2018-05-23T23:32:30.808Z,3.50
2018-05-23T23:34:59.123Z,4.00
2018-05-23T23:37:27.429Z,3.27
2018-05-23T23:39:55.739Z,3.83
2018-05-23T23:42:24.041Z,3.60
2018-05-23T23:44:52.560Z,3.20
2018-05-23T23:47:20.921Z,3.53
2018-05-23T23:49:49.422Z,4.13
2018-05-23T23:52:17.853Z,3.90
2018-05-23T23:54:46.191Z,4.53
2018-05-23T23:57:15.063Z,4.03
2018-05-23T23:59:43.386Z,4.00
